createdAt,value
2022-12-29T00:00:44.322Z,4.41
2022-12-29T00:01:46.813Z,4.90
2022-12-29T00:02:50.053Z,4.73
2022-12-29T00:03:52.719Z,4.99
2022-12-29T00:04:55.281Z,5.02
2022-12-29T00:05:57.744Z,4.81
2022-12-29T00:07:00.232Z,4.90
2022-12-29T00:08:02.970Z,4.46
2022-12-29T00:09:05.435Z,4.63
2022-12-29T00:10:08.311Z,4.95
2022-12-29T00:11:10.772Z,5.18
2022-12-29T00:12:13.156Z,4.92
2022-12-29T00:13:15.619Z,4.69
2022-12-29T00:14:22.755Z,4.65
2022-12-29T00:15:22.200Z,4.82
2022-12-29T00:16:24.787Z,5.33
2022-12-29T00:17:27.339Z,5.08
2022-12-29T00:18:29.986Z,5.08
2022-12-29T00:19:32.395Z,4.90
2022-12-29T00:20:34.644Z,4.54
2022-12-29T00:21:37.044Z,4.75
2022-12-29T00:22:39.474Z,5.27
2022-12-29T00:23:42.076Z,4.46
2022-12-29T00:24:44.254Z,4.53
2022-12-29T00:25:46.660Z,5.50
2022-12-29T00:26:49.122Z,4.87
2022-12-29T00:27:51.314Z,5.22
2022-12-29T00:28:53.709Z,4.63
2022-12-29T00:29:55.897Z,5.67
2022-12-29T00:30:58.379Z,5.64
2022-12-29T00:32:00.782Z,5.52
2022-12-29T00:33:03.040Z,5.26
2022-12-29T00:34:05.458Z,5.65
2022-12-29T00:35:07.631Z,5.52
2022-12-29T00:36:10.140Z,5.12
2022-12-29T00:37:12.524Z,5.40
2022-12-29T00:38:15.031Z,5.34
2022-12-29T00:39:17.675Z,5.08
2022-12-29T00:40:20.710Z,5.18
2022-12-29T00:41:23.163Z,5.58
2022-12-29T00:42:25.503Z,4.85
2022-12-29T00:43:28.037Z,5.12
2022-12-29T00:44:30.730Z,5.30
2022-12-29T00:45:34.222Z,4.83
2022-12-29T00:46:36.664Z,5.05
2022-12-29T00:47:38.923Z,5.38
2022-12-29T00:48:41.523Z,5.17
2022-12-29T00:49:43.769Z,4.93
2022-12-29T00:50:45.959Z,5.02
2022-12-29T00:51:48.192Z,5.00
2022-12-29T00:52:50.463Z,5.25
2022-12-29T00:53:52.669Z,4.96
2022-12-29T00:54:54.910Z,5.37
2022-12-29T00:55:57.088Z,5.22
2022-12-29T00:56:59.287Z,5.26
2022-12-29T00:58:01.533Z,5.49
2022-12-29T00:59:03.742Z,5.79
2022-12-29T01:00:05.995Z,5.38
2022-12-29T01:01:09.528Z,5.46
2022-12-29T01:02:11.993Z,5.90
2022-12-29T01:03:14.473Z,5.29
2022-12-29T01:04:16.791Z,5.31
2022-12-29T01:05:20.581Z,5.47
2022-12-29T01:06:22.881Z,5.47
2022-12-29T01:07:25.041Z,5.77
2022-12-29T01:08:27.237Z,5.53
2022-12-29T01:09:29.464Z,6.18
2022-12-29T01:10:31.972Z,5.96
2022-12-29T01:11:34.387Z,6.47
2022-12-29T01:12:36.900Z,6.17
2022-12-29T01:13:39.323Z,5.83
2022-12-29T01:14:41.737Z,6.08
2022-12-29T01:15:44.013Z,6.47
2022-12-29T01:16:46.403Z,6.53
2022-12-29T01:17:48.677Z,5.86
2022-12-29T01:18:50.889Z,6.44
2022-12-29T01:19:53.065Z,6.43
2022-12-29T01:20:55.487Z,6.20
2022-12-29T01:21:57.678Z,6.55
2022-12-29T01:22:59.860Z,6.13
2022-12-29T01:24:02.326Z,6.76
2022-12-29T01:25:04.901Z,5.86
2022-12-29T01:26:07.495Z,6.13
2022-12-29T01:27:09.885Z,7.12
2022-12-29T01:28:12.305Z,5.95
2022-12-29T01:29:14.571Z,5.97
2022-12-29T01:30:17.043Z,5.97
2022-12-29T01:31:20.967Z,6.47
2022-12-29T01:32:23.397Z,6.69
2022-12-29T01:33:25.858Z,6.72
2022-12-29T01:34:28.365Z,6.33
2022-12-29T01:35:30.835Z,6.75
2022-12-29T01:36:33.541Z,6.82
2022-12-29T01:37:36.862Z,6.74
2022-12-29T01:38:39.320Z,6.41
2022-12-29T01:39:41.720Z,6.26
2022-12-29T01:40:44.128Z,5.94
2022-12-29T01:41:46.784Z,6.31
2022-12-29T01:42:49.212Z,6.37
2022-12-29T01:43:51.664Z,6.38
2022-12-29T01:44:54.551Z,6.27
2022-12-29T01:45:57.051Z,5.78
2022-12-29T01:46:59.527Z,6.22
2022-12-29T01:48:02.041Z,6.90
2022-12-29T01:49:04.574Z,6.60
2022-12-29T01:50:07.105Z,6.72
2022-12-29T01:51:09.743Z,5.75
2022-12-29T01:52:12.332Z,5.97
2022-12-29T01:53:14.797Z,5.49
2022-12-29T01:54:17.313Z,5.97
2022-12-29T01:55:19.806Z,5.98
2022-12-29T01:56:22.275Z,5.67
2022-12-29T01:57:24.864Z,5.78
2022-12-29T01:58:27.300Z,5.37
2022-12-29T01:59:29.810Z,5.39
2022-12-29T02:00:32.229Z,6.12
2022-12-29T02:01:35.046Z,6.05
2022-12-29T02:02:37.552Z,5.79
2022-12-29T02:03:39.945Z,5.99
2022-12-29T02:04:42.433Z,6.41
2022-12-29T02:05:44.848Z,5.78
2022-12-29T02:06:47.345Z,5.56
2022-12-29T02:07:49.799Z,5.95
2022-12-29T02:08:52.204Z,6.51
2022-12-29T02:09:54.473Z,6.42
2022-12-29T02:10:56.768Z,6.23
2022-12-29T02:11:59.065Z,6.09
2022-12-29T02:13:01.407Z,5.78
2022-12-29T02:14:04.031Z,5.62
2022-12-29T02:15:06.319Z,6.33
2022-12-29T02:16:09.668Z,6.08
2022-12-29T02:17:11.953Z,5.88
2022-12-29T02:18:14.330Z,5.61
2022-12-29T02:19:16.497Z,5.25
2022-12-29T02:20:20.529Z,5.63
2022-12-29T02:21:22.812Z,5.38
2022-12-29T02:22:25.367Z,5.78
2022-12-29T02:23:28.008Z,5.06
2022-12-29T02:24:30.523Z,5.30
2022-12-29T02:25:32.936Z,5.26
2022-12-29T02:26:35.393Z,5.28
2022-12-29T02:27:37.828Z,5.68
2022-12-29T02:28:40.457Z,5.03
2022-12-29T02:29:42.655Z,5.19
2022-12-29T02:30:45.099Z,5.24
2022-12-29T02:31:47.684Z,5.29
2022-12-29T02:32:50.273Z,5.80
2022-12-29T02:33:53.085Z,5.45
2022-12-29T02:34:55.480Z,5.42
2022-12-29T02:35:57.709Z,5.10
2022-12-29T02:37:00.162Z,5.58
2022-12-29T02:38:02.712Z,5.50
2022-12-29T02:39:05.358Z,5.36
2022-12-29T02:40:07.910Z,5.32
2022-12-29T02:41:10.318Z,5.12
2022-12-29T02:42:12.783Z,5.19
2022-12-29T02:43:15.265Z,5.12
2022-12-29T02:44:17.913Z,5.35
2022-12-29T02:45:20.908Z,5.45
2022-12-29T02:46:23.415Z,5.17
2022-12-29T02:47:25.923Z,5.52
2022-12-29T02:48:28.508Z,5.59
2022-12-29T02:49:31.335Z,5.15
2022-12-29T02:50:33.826Z,5.48
2022-12-29T02:51:36.660Z,5.82
2022-12-29T02:52:39.196Z,5.73
2022-12-29T02:53:41.598Z,5.73
2022-12-29T02:54:44.287Z,5.62
2022-12-29T02:55:47.014Z,5.78
2022-12-29T02:56:49.449Z,5.34
2022-12-29T02:57:51.923Z,5.54
2022-12-29T02:58:54.347Z,5.71
2022-12-29T02:59:56.919Z,5.55
2022-12-29T03:00:59.459Z,5.82
2022-12-29T03:02:02.197Z,5.98
2022-12-29T03:03:04.939Z,5.70
2022-12-29T03:04:07.455Z,6.08
2022-12-29T03:05:10.161Z,5.66
2022-12-29T03:06:12.946Z,5.67
2022-12-29T03:07:15.377Z,5.48
2022-12-29T03:08:17.839Z,5.78
2022-12-29T03:09:20.454Z,5.75
2022-12-29T03:10:23.188Z,5.61
2022-12-29T03:11:25.382Z,6.12
2022-12-29T03:12:27.603Z,5.42
2022-12-29T03:13:29.803Z,5.37
2022-12-29T03:14:31.960Z,5.33
2022-12-29T03:15:34.267Z,5.33
2022-12-29T03:16:36.808Z,5.04
2022-12-29T03:17:39.295Z,4.68
2022-12-29T03:18:41.759Z,4.99
2022-12-29T03:19:44.139Z,4.55
2022-12-29T03:20:46.707Z,4.44
2022-12-29T03:21:49.146Z,4.77
2022-12-29T03:22:51.585Z,4.23
2022-12-29T03:23:54.004Z,4.90
2022-12-29T03:24:56.411Z,4.41
2022-12-29T03:25:58.988Z,5.14
2022-12-29T03:27:01.415Z,4.22
2022-12-29T03:28:03.807Z,4.42
2022-12-29T03:29:06.312Z,4.39
2022-12-29T03:30:08.496Z,4.08
2022-12-29T03:31:11.120Z,4.45
2022-12-29T03:32:13.386Z,4.58
2022-12-29T03:33:15.823Z,4.62
2022-12-29T03:34:18.268Z,3.97
2022-12-29T03:35:20.713Z,4.62
2022-12-29T03:36:23.198Z,4.38
2022-12-29T03:37:25.603Z,3.98
2022-12-29T03:38:28.070Z,4.18
2022-12-29T03:39:30.257Z,4.43
2022-12-29T03:40:32.486Z,4.66
2022-12-29T03:41:34.863Z,5.19
2022-12-29T03:42:37.096Z,4.85
2022-12-29T03:43:39.363Z,4.58
2022-12-29T03:44:41.554Z,4.63
2022-12-29T03:45:43.840Z,4.17
2022-12-29T03:46:46.313Z,4.53
2022-12-29T03:47:48.523Z,4.44
2022-12-29T03:48:50.691Z,4.50
2022-12-29T03:49:52.903Z,4.15
2022-12-29T03:50:55.291Z,4.16
2022-12-29T03:51:57.649Z,4.21
2022-12-29T03:52:59.863Z,3.95
2022-12-29T03:54:02.123Z,4.17
2022-12-29T03:55:04.367Z,4.49
2022-12-29T03:56:06.560Z,4.58
2022-12-29T03:57:08.917Z,4.27
2022-12-29T03:58:11.128Z,4.28
2022-12-29T03:59:13.319Z,4.14
2022-12-29T04:00:15.469Z,4.22
2022-12-29T04:01:18.108Z,4.62
2022-12-29T04:02:20.983Z,4.72
2022-12-29T04:03:23.563Z,4.83
2022-12-29T04:04:26.093Z,4.67
2022-12-29T04:05:28.486Z,3.94
2022-12-29T04:06:30.964Z,4.68
2022-12-29T04:07:33.650Z,4.48
2022-12-29T04:08:36.045Z,4.30
2022-12-29T04:09:38.496Z,5.09
2022-12-29T04:10:40.914Z,4.42
2022-12-29T04:11:43.359Z,4.56
2022-12-29T04:12:45.860Z,4.67
2022-12-29T04:13:48.276Z,4.49
2022-12-29T04:14:50.825Z,4.40
2022-12-29T04:15:53.303Z,4.25
2022-12-29T04:16:55.775Z,3.83
2022-12-29T04:17:58.302Z,4.78
2022-12-29T04:19:00.816Z,4.58
2022-12-29T04:20:03.259Z,4.37
2022-12-29T04:21:05.681Z,4.66
2022-12-29T04:22:08.111Z,4.92
2022-12-29T04:23:10.640Z,4.70
2022-12-29T04:24:13.029Z,4.65
2022-12-29T04:25:15.477Z,4.58
2022-12-29T04:26:17.904Z,4.99
2022-12-29T04:27:20.304Z,4.85
2022-12-29T04:28:22.826Z,4.53
2022-12-29T04:29:25.451Z,4.59
2022-12-29T04:30:27.871Z,4.25
2022-12-29T04:31:30.436Z,4.88
2022-12-29T04:32:33.045Z,4.94
2022-12-29T04:33:35.611Z,4.87
2022-12-29T04:34:38.460Z,4.90
2022-12-29T04:35:40.990Z,4.54
2022-12-29T04:36:43.389Z,4.54
2022-12-29T04:37:45.865Z,4.58
2022-12-29T04:38:48.470Z,4.99
2022-12-29T04:39:50.891Z,4.83
2022-12-29T04:40:53.307Z,4.21
2022-12-29T04:41:55.747Z,3.79
2022-12-29T04:42:58.161Z,4.22
2022-12-29T04:44:00.675Z,4.25
2022-12-29T04:45:03.160Z,4.28
2022-12-29T04:46:05.789Z,3.83
2022-12-29T04:47:08.126Z,4.26
2022-12-29T04:48:10.281Z,4.25
2022-12-29T04:49:12.567Z,4.67
2022-12-29T04:50:14.795Z,4.57
2022-12-29T04:51:17.007Z,4.18
2022-12-29T04:52:19.201Z,3.91
2022-12-29T04:53:21.469Z,4.53
2022-12-29T04:54:23.712Z,4.53
2022-12-29T04:55:25.979Z,4.08
2022-12-29T04:56:28.431Z,4.57
2022-12-29T04:57:31.034Z,4.05
2022-12-29T04:58:33.501Z,4.38
2022-12-29T04:59:36.092Z,4.30
2022-12-29T05:00:38.521Z,4.47
2022-12-29T05:01:41.082Z,5.11
2022-12-29T05:02:43.786Z,4.49
2022-12-29T05:03:46.199Z,4.32
2022-12-29T05:04:49.194Z,4.62
2022-12-29T05:05:51.738Z,4.57
2022-12-29T05:06:54.148Z,4.58
2022-12-29T05:07:56.586Z,4.79
2022-12-29T05:08:59.033Z,4.66
2022-12-29T05:10:01.999Z,4.54
2022-12-29T05:11:04.446Z,4.57
2022-12-29T05:12:06.902Z,4.93
2022-12-29T05:13:10.086Z,4.57
2022-12-29T05:14:12.462Z,5.07
2022-12-29T05:15:15.086Z,4.65
2022-12-29T05:16:17.880Z,4.47
2022-12-29T05:17:21.259Z,4.86
2022-12-29T05:18:23.717Z,4.82
2022-12-29T05:19:26.129Z,4.60
2022-12-29T05:20:29.041Z,4.75
2022-12-29T05:21:31.546Z,4.66
2022-12-29T05:22:34.001Z,4.43
2022-12-29T05:23:36.483Z,5.14
2022-12-29T05:24:39.000Z,4.78
2022-12-29T05:25:41.580Z,4.28
2022-12-29T05:26:44.170Z,4.85
2022-12-29T05:27:46.689Z,5.05
2022-12-29T05:28:48.877Z,5.50
2022-12-29T05:29:51.354Z,4.80
2022-12-29T05:30:53.958Z,5.33
2022-12-29T05:31:56.579Z,4.81
2022-12-29T05:32:59.129Z,4.77
2022-12-29T05:34:01.663Z,5.04
2022-12-29T05:35:04.172Z,5.19
2022-12-29T05:36:06.732Z,4.57
2022-12-29T05:37:10.239Z,4.98
2022-12-29T05:38:12.649Z,5.05
2022-12-29T05:39:15.218Z,4.99
2022-12-29T05:40:17.708Z,5.14
2022-12-29T05:41:20.327Z,4.88
2022-12-29T05:42:22.863Z,4.76
2022-12-29T05:43:28.471Z,5.06
2022-12-29T05:44:34.052Z,5.25
2022-12-29T05:45:36.493Z,5.59
2022-12-29T05:46:39.058Z,5.38
2022-12-29T05:47:41.611Z,5.22
2022-12-29T05:48:43.838Z,5.08
2022-12-29T05:49:46.051Z,4.62
2022-12-29T05:50:48.250Z,5.69
2022-12-29T05:51:50.555Z,4.89
2022-12-29T05:52:52.748Z,5.40
2022-12-29T05:53:54.975Z,4.64
2022-12-29T05:54:57.188Z,5.14
2022-12-29T05:55:59.698Z,5.12
2022-12-29T05:57:02.210Z,4.81
2022-12-29T05:58:04.606Z,5.22
2022-12-29T05:59:07.071Z,6.28
2022-12-29T06:00:09.671Z,4.87
2022-12-29T06:01:12.143Z,5.06
2022-12-29T06:02:14.919Z,4.45
2022-12-29T06:03:17.737Z,5.25
2022-12-29T06:04:20.226Z,5.10
2022-12-29T06:05:22.633Z,4.96
2022-12-29T06:06:25.104Z,4.70
2022-12-29T06:07:27.569Z,4.61
2022-12-29T06:08:30.026Z,4.49
2022-12-29T06:09:32.455Z,4.68
2022-12-29T06:10:35.655Z,4.94
2022-12-29T06:11:38.199Z,4.88
2022-12-29T06:12:40.672Z,4.90
2022-12-29T06:13:43.093Z,4.92
2022-12-29T06:14:45.743Z,4.58
2022-12-29T06:15:48.136Z,4.71
2022-12-29T06:16:50.575Z,5.03
2022-12-29T06:17:53.318Z,4.55
2022-12-29T06:18:55.790Z,4.27
2022-12-29T06:19:58.231Z,5.42
2022-12-29T06:21:00.655Z,5.47
2022-12-29T06:22:03.139Z,5.58
2022-12-29T06:23:05.807Z,5.58
2022-12-29T06:24:08.288Z,5.20
2022-12-29T06:25:10.495Z,5.66
2022-12-29T06:26:12.925Z,5.16
2022-12-29T06:27:15.154Z,4.97
2022-12-29T06:28:17.636Z,4.82
2022-12-29T06:29:19.967Z,4.91
2022-12-29T06:30:22.161Z,5.14
2022-12-29T06:31:24.450Z,4.83
2022-12-29T06:32:26.690Z,4.74
2022-12-29T06:33:29.355Z,4.84
2022-12-29T06:34:31.557Z,5.03
2022-12-29T06:35:33.880Z,4.86
2022-12-29T06:36:36.223Z,4.91
2022-12-29T06:37:38.399Z,4.99
2022-12-29T06:38:40.720Z,5.41
2022-12-29T06:39:42.903Z,6.41
2022-12-29T06:40:45.159Z,6.44
2022-12-29T06:41:47.390Z,6.07
2022-12-29T06:42:49.616Z,5.57
2022-12-29T06:43:51.814Z,5.83
2022-12-29T06:44:53.993Z,5.68
2022-12-29T06:45:56.257Z,5.47
2022-12-29T06:46:58.574Z,5.17
2022-12-29T06:48:00.920Z,4.95
2022-12-29T06:49:03.254Z,5.40
2022-12-29T06:50:05.464Z,4.97
2022-12-29T06:51:07.720Z,5.87
2022-12-29T06:52:12.990Z,5.00
2022-12-29T06:53:14.057Z,5.69
2022-12-29T06:54:16.553Z,5.63
2022-12-29T06:55:19.021Z,5.08
2022-12-29T06:56:21.447Z,5.78
2022-12-29T06:57:25.112Z,5.35
2022-12-29T06:58:27.589Z,6.79
2022-12-29T06:59:30.272Z,5.92
2022-12-29T07:00:32.649Z,5.61
2022-12-29T07:01:35.802Z,5.80
2022-12-29T07:02:38.497Z,6.33
2022-12-29T07:03:41.086Z,5.91
2022-12-29T07:04:43.692Z,5.78
2022-12-29T07:05:46.198Z,5.54
2022-12-29T07:06:48.597Z,4.91
2022-12-29T07:07:51.064Z,5.52
2022-12-29T07:08:53.494Z,6.03
2022-12-29T07:09:55.938Z,6.58
2022-12-29T07:10:58.465Z,5.21
2022-12-29T07:12:01.110Z,5.40
2022-12-29T07:13:03.496Z,5.53
2022-12-29T07:14:05.915Z,5.55
2022-12-29T07:15:08.120Z,5.38
2022-12-29T07:16:10.604Z,5.02
2022-12-29T07:17:13.121Z,5.68
2022-12-29T07:18:15.593Z,5.43
2022-12-29T07:19:18.022Z,6.33
2022-12-29T07:20:26.314Z,5.52
2022-12-29T07:21:24.562Z,5.19
2022-12-29T07:22:27.121Z,5.79
2022-12-29T07:23:29.933Z,5.71
2022-12-29T07:24:32.340Z,5.38
2022-12-29T07:25:34.913Z,5.54
2022-12-29T07:26:37.308Z,5.17
2022-12-29T07:27:39.796Z,5.12
2022-12-29T07:28:42.248Z,5.54
2022-12-29T07:29:44.747Z,5.82
2022-12-29T07:30:47.253Z,5.24
2022-12-29T07:31:49.717Z,5.22
2022-12-29T07:32:52.222Z,5.87
2022-12-29T07:33:54.442Z,6.46
2022-12-29T07:34:56.633Z,6.15
2022-12-29T07:35:59.072Z,5.22
2022-12-29T07:37:01.289Z,4.80
2022-12-29T07:38:03.578Z,4.40
2022-12-29T07:39:05.784Z,5.17
2022-12-29T07:40:08.012Z,5.44
2022-12-29T07:41:10.330Z,5.16
2022-12-29T07:42:12.624Z,4.87
2022-12-29T07:43:15.039Z,5.36
2022-12-29T07:44:17.618Z,5.18
2022-12-29T07:45:20.144Z,4.93
2022-12-29T07:46:55.466Z,5.25
2022-12-29T07:47:26.687Z,5.48
2022-12-29T07:48:29.173Z,5.24
2022-12-29T07:49:31.667Z,5.12
2022-12-29T07:50:34.145Z,5.37
2022-12-29T07:51:36.622Z,5.32
2022-12-29T07:52:38.997Z,6.00
2022-12-29T07:53:41.498Z,6.05
2022-12-29T07:54:43.980Z,5.18
2022-12-29T07:55:46.453Z,6.07
2022-12-29T07:56:49.046Z,5.22
2022-12-29T07:57:51.440Z,4.97
2022-12-29T07:58:53.876Z,5.52
2022-12-29T07:59:56.288Z,5.18
2022-12-29T08:00:58.833Z,5.33
2022-12-29T08:02:01.475Z,4.50
2022-12-29T08:03:03.939Z,5.32
2022-12-29T08:04:06.494Z,5.56
2022-12-29T08:05:08.925Z,4.78
2022-12-29T08:06:11.314Z,5.14
2022-12-29T08:07:13.931Z,4.42
2022-12-29T08:08:16.406Z,4.81
2022-12-29T08:09:22.653Z,4.61
2022-12-29T08:10:22.851Z,4.66
2022-12-29T08:11:26.655Z,5.52
2022-12-29T08:12:29.420Z,5.55
2022-12-29T08:13:31.875Z,5.68
2022-12-29T08:14:34.272Z,4.98
2022-12-29T08:15:36.918Z,4.78
2022-12-29T08:16:39.403Z,5.08
2022-12-29T08:17:41.884Z,4.65
2022-12-29T08:18:44.323Z,5.32
2022-12-29T08:19:46.825Z,5.12
2022-12-29T08:20:54.029Z,4.28
2022-12-29T08:21:53.333Z,4.84
2022-12-29T08:22:55.940Z,4.88
2022-12-29T08:23:58.431Z,4.95
2022-12-29T08:25:00.964Z,4.81
2022-12-29T08:26:03.384Z,5.15
2022-12-29T08:27:14.659Z,5.33
2022-12-29T08:28:10.085Z,5.02
2022-12-29T08:29:12.511Z,4.84
2022-12-29T08:30:15.203Z,4.89
2022-12-29T08:31:17.729Z,4.73
2022-12-29T08:32:20.253Z,4.28
2022-12-29T08:33:22.884Z,4.54
2022-12-29T08:34:26.444Z,4.86
2022-12-29T08:35:28.848Z,5.55
2022-12-29T08:36:31.061Z,4.97
2022-12-29T08:37:33.258Z,4.75
2022-12-29T08:38:35.621Z,5.64
2022-12-29T08:39:37.820Z,5.08
2022-12-29T08:40:40.072Z,5.38
2022-12-29T08:41:42.283Z,5.51
2022-12-29T08:42:44.497Z,5.51
2022-12-29T08:43:46.909Z,6.26
2022-12-29T08:44:49.118Z,5.56
2022-12-29T08:45:51.518Z,5.47
2022-12-29T08:46:53.982Z,5.33
2022-12-29T08:47:56.477Z,5.30
2022-12-29T08:48:59.161Z,5.31
2022-12-29T08:50:01.644Z,5.32
2022-12-29T08:51:04.231Z,5.03
2022-12-29T08:52:06.795Z,4.85
2022-12-29T08:53:09.183Z,5.17
2022-12-29T08:54:11.836Z,5.76
2022-12-29T08:55:14.297Z,5.92
2022-12-29T08:56:16.835Z,6.28
2022-12-29T08:57:19.397Z,5.58
2022-12-29T08:58:21.866Z,6.06
2022-12-29T08:59:24.390Z,5.47
2022-12-29T09:00:26.790Z,5.69
2022-12-29T09:01:29.464Z,6.04
2022-12-29T09:02:32.330Z,5.59
2022-12-29T09:04:12.830Z,5.81
2022-12-29T09:04:40.228Z,5.94
2022-12-29T09:05:42.661Z,5.80
2022-12-29T09:06:45.138Z,6.04
2022-12-29T09:07:47.983Z,5.58
2022-12-29T09:08:50.534Z,6.06
2022-12-29T09:09:53.121Z,6.37
2022-12-29T09:10:55.504Z,6.22
2022-12-29T09:11:57.922Z,5.77
2022-12-29T09:13:00.513Z,6.06
2022-12-29T09:14:02.976Z,5.90
2022-12-29T09:15:05.870Z,5.49
2022-12-29T09:16:08.303Z,5.52
2022-12-29T09:17:10.564Z,5.60
2022-12-29T09:18:19.067Z,5.78
2022-12-29T09:19:17.063Z,6.40
2022-12-29T09:20:19.608Z,5.48
2022-12-29T09:21:22.045Z,5.79
2022-12-29T09:22:24.472Z,5.87
2022-12-29T09:23:27.011Z,5.55
2022-12-29T09:24:29.534Z,5.52
2022-12-29T09:25:32.104Z,6.03
2022-12-29T09:26:34.575Z,5.20
2022-12-29T09:27:37.006Z,5.59
2022-12-29T09:28:39.395Z,5.22
2022-12-29T09:29:41.895Z,5.67
2022-12-29T09:30:44.755Z,5.38
2022-12-29T09:31:47.005Z,5.75
2022-12-29T09:32:54.869Z,5.47
2022-12-29T09:33:53.118Z,5.93
2022-12-29T09:34:55.311Z,5.62
2022-12-29T09:35:57.611Z,5.39
2022-12-29T09:36:59.819Z,5.65
2022-12-29T09:38:02.092Z,6.01
2022-12-29T09:39:04.375Z,5.62
2022-12-29T09:40:06.618Z,5.37
2022-12-29T09:41:09.080Z,5.15
2022-12-29T09:42:11.313Z,5.29
2022-12-29T09:43:13.935Z,5.02
2022-12-29T09:44:16.584Z,5.36
2022-12-29T09:45:19.190Z,6.09
2022-12-29T09:46:21.785Z,5.82
2022-12-29T09:47:24.281Z,5.38
2022-12-29T09:48:29.962Z,5.40
2022-12-29T09:49:32.496Z,5.67
2022-12-29T09:50:34.895Z,5.57
2022-12-29T09:51:37.431Z,5.97
2022-12-29T09:52:39.867Z,5.77
2022-12-29T09:53:42.337Z,5.74
2022-12-29T09:54:50.809Z,5.88
2022-12-29T09:55:48.835Z,5.39
2022-12-29T09:56:51.424Z,5.83
2022-12-29T09:57:53.793Z,5.65
2022-12-29T09:58:56.207Z,5.48
2022-12-29T09:59:58.971Z,4.62
2022-12-29T10:01:01.227Z,5.28
2022-12-29T10:02:03.973Z,5.68
2022-12-29T10:03:06.736Z,5.28
2022-12-29T10:04:09.068Z,5.28
2022-12-29T10:05:11.268Z,5.26
2022-12-29T10:06:13.472Z,5.28
2022-12-29T10:07:31.610Z,5.39
2022-12-29T10:08:20.022Z,4.94
2022-12-29T10:09:22.214Z,5.57
2022-12-29T10:10:24.468Z,4.95
2022-12-29T10:11:26.648Z,5.02
2022-12-29T10:12:29.061Z,5.48
2022-12-29T10:13:32.298Z,5.18
2022-12-29T10:14:34.925Z,5.35
2022-12-29T10:15:37.158Z,5.29
2022-12-29T10:16:39.415Z,5.01
2022-12-29T10:17:41.931Z,4.72
2022-12-29T10:18:44.122Z,4.85
2022-12-29T10:19:46.315Z,5.05
2022-12-29T10:20:48.483Z,4.67
2022-12-29T10:21:50.707Z,4.92
2022-12-29T10:22:53.370Z,4.94
2022-12-29T10:23:55.865Z,4.52
2022-12-29T10:24:58.242Z,4.88
2022-12-29T10:26:00.833Z,5.03
2022-12-29T10:27:03.328Z,4.41
2022-12-29T10:28:05.991Z,4.97
2022-12-29T10:29:10.962Z,4.60
2022-12-29T10:30:13.189Z,4.93
2022-12-29T10:31:15.564Z,4.87
2022-12-29T10:32:17.797Z,5.00
2022-12-29T10:33:20.221Z,4.87
2022-12-29T10:34:22.487Z,4.73
2022-12-29T10:35:24.741Z,4.62
2022-12-29T10:36:26.994Z,5.43
2022-12-29T10:37:33.773Z,5.27
2022-12-29T10:38:33.170Z,5.28
2022-12-29T10:39:35.695Z,5.65
2022-12-29T10:40:38.196Z,5.28
2022-12-29T10:41:40.653Z,5.12
2022-12-29T10:42:43.123Z,5.18
2022-12-29T10:43:45.753Z,5.31
2022-12-29T10:44:48.170Z,5.13
2022-12-29T10:45:50.668Z,5.17
2022-12-29T10:46:53.223Z,4.99
2022-12-29T10:47:55.752Z,5.37
2022-12-29T10:48:58.303Z,5.35
2022-12-29T10:50:00.842Z,5.20
2022-12-29T10:51:03.363Z,4.92
2022-12-29T10:52:05.818Z,5.02
2022-12-29T10:53:08.313Z,5.53
2022-12-29T10:54:10.845Z,5.31
2022-12-29T10:55:13.297Z,5.50
2022-12-29T10:56:15.808Z,5.64
2022-12-29T10:57:18.339Z,5.90
2022-12-29T10:58:20.845Z,5.70
2022-12-29T10:59:23.601Z,6.63
2022-12-29T11:00:26.053Z,5.60
2022-12-29T11:01:28.663Z,6.07
2022-12-29T11:02:31.295Z,5.63
2022-12-29T11:03:33.655Z,6.15
2022-12-29T11:04:36.429Z,5.91
2022-12-29T11:05:38.906Z,5.82
2022-12-29T11:06:41.378Z,5.68
2022-12-29T11:07:43.920Z,5.23
2022-12-29T11:08:46.341Z,5.84
2022-12-29T11:09:49.154Z,6.16
2022-12-29T11:10:51.695Z,6.47
2022-12-29T11:11:54.096Z,6.14
2022-12-29T11:12:56.538Z,6.06
2022-12-29T11:13:58.967Z,5.43
2022-12-29T11:15:01.511Z,5.52
2022-12-29T11:16:04.065Z,5.95
2022-12-29T11:17:06.633Z,5.54
2022-12-29T11:18:09.068Z,5.71
2022-12-29T11:19:11.643Z,6.44
2022-12-29T11:20:14.299Z,6.29
2022-12-29T11:21:17.051Z,5.72
2022-12-29T11:22:19.285Z,6.04
2022-12-29T11:23:21.491Z,6.25
2022-12-29T11:24:23.686Z,6.46
2022-12-29T11:25:25.881Z,5.87
2022-12-29T11:26:33.921Z,6.33
2022-12-29T11:27:31.974Z,6.34
2022-12-29T11:28:34.165Z,5.42
2022-12-29T11:29:36.335Z,6.37
2022-12-29T11:30:39.092Z,6.12
2022-12-29T11:31:41.590Z,6.27
2022-12-29T11:32:44.129Z,6.05
2022-12-29T11:33:46.605Z,6.09
2022-12-29T11:34:49.165Z,6.12
2022-12-29T11:35:51.772Z,6.38
2022-12-29T11:36:54.257Z,7.05
2022-12-29T11:37:56.693Z,6.25
2022-12-29T11:38:59.125Z,6.62
2022-12-29T11:40:01.679Z,6.41
2022-12-29T11:41:04.188Z,6.31
2022-12-29T11:42:06.671Z,6.75
2022-12-29T11:43:09.039Z,6.42
2022-12-29T11:44:11.561Z,6.58
2022-12-29T11:45:14.073Z,6.42
2022-12-29T11:46:16.619Z,6.48
2022-12-29T11:47:19.047Z,5.73
2022-12-29T11:48:21.606Z,5.88
2022-12-29T11:49:24.219Z,5.99
2022-12-29T11:50:26.779Z,5.83
2022-12-29T11:51:29.439Z,6.12
2022-12-29T11:52:31.830Z,6.44
2022-12-29T11:53:34.232Z,6.82
2022-12-29T11:54:36.682Z,6.96
2022-12-29T11:55:39.276Z,6.43
2022-12-29T11:56:42.229Z,6.12
2022-12-29T11:57:44.694Z,6.32
2022-12-29T11:58:46.950Z,5.74
2022-12-29T11:59:49.347Z,6.26
2022-12-29T12:00:51.806Z,6.15
2022-12-29T12:01:54.603Z,5.92
2022-12-29T12:02:57.289Z,6.32
2022-12-29T12:03:59.771Z,5.42
2022-12-29T12:05:02.281Z,5.17
2022-12-29T12:06:04.862Z,4.99
2022-12-29T12:07:07.405Z,5.68
2022-12-29T12:08:09.868Z,6.09
2022-12-29T12:09:12.274Z,5.70
2022-12-29T12:10:14.840Z,5.62
2022-12-29T12:11:17.346Z,5.74
2022-12-29T12:12:19.836Z,5.25
2022-12-29T12:13:22.336Z,5.05
2022-12-29T12:14:24.800Z,6.26
2022-12-29T12:15:27.220Z,5.72
2022-12-29T12:16:29.759Z,5.27
2022-12-29T12:17:32.055Z,5.20
2022-12-29T12:18:34.247Z,5.24
2022-12-29T12:19:36.457Z,4.77
2022-12-29T12:20:38.646Z,5.51
2022-12-29T12:21:45.329Z,4.61
2022-12-29T12:22:44.913Z,5.14
2022-12-29T12:23:47.113Z,5.05
2022-12-29T12:24:58.111Z,4.63
2022-12-29T12:26:01.087Z,4.22
2022-12-29T12:27:04.532Z,4.92
2022-12-29T12:28:07.541Z,4.71
2022-12-29T12:29:10.407Z,4.44
2022-12-29T12:30:13.683Z,4.18
2022-12-29T12:31:16.533Z,4.46
2022-12-29T12:32:19.742Z,3.95
2022-12-29T12:33:22.928Z,4.08
2022-12-29T12:34:25.835Z,4.73
2022-12-29T12:35:28.986Z,4.25
2022-12-29T12:36:31.966Z,4.72
2022-12-29T12:37:34.958Z,4.98
2022-12-29T12:38:38.198Z,4.88
2022-12-29T12:39:41.600Z,4.61
2022-12-29T12:40:45.107Z,4.55
2022-12-29T12:41:47.868Z,4.44
2022-12-29T12:42:51.129Z,4.40
2022-12-29T12:43:54.125Z,4.29
2022-12-29T12:44:57.200Z,4.26
2022-12-29T12:46:00.125Z,4.45
2022-12-29T12:47:03.060Z,5.09
2022-12-29T12:48:06.134Z,4.61
2022-12-29T12:49:09.014Z,4.35
2022-12-29T12:50:12.248Z,4.38
2022-12-29T12:51:16.068Z,4.28
2022-12-29T12:52:19.419Z,4.25
2022-12-29T12:53:22.267Z,4.11
2022-12-29T12:54:25.127Z,3.84
2022-12-29T12:55:28.420Z,3.79
2022-12-29T12:56:31.777Z,4.49
2022-12-29T12:57:34.577Z,4.46
2022-12-29T12:58:37.480Z,3.98
2022-12-29T12:59:40.608Z,3.92
2022-12-29T13:00:43.299Z,4.47
2022-12-29T13:01:46.930Z,3.95
2022-12-29T13:02:49.875Z,4.09
2022-12-29T13:03:52.890Z,4.37
2022-12-29T13:04:56.209Z,4.48
2022-12-29T13:05:59.152Z,3.92
2022-12-29T13:07:02.059Z,3.88
2022-12-29T13:08:05.193Z,4.15
2022-12-29T13:09:08.444Z,4.10
2022-12-29T13:10:11.714Z,4.19
2022-12-29T13:11:15.010Z,4.15
2022-12-29T13:12:18.814Z,4.02
2022-12-29T13:13:22.116Z,3.91
2022-12-29T13:14:25.354Z,3.69
2022-12-29T13:15:28.854Z,3.64
2022-12-29T13:16:31.801Z,3.75
2022-12-29T13:17:35.148Z,4.15
2022-12-29T13:18:38.186Z,3.82
2022-12-29T13:19:43.028Z,3.92
2022-12-29T13:20:46.105Z,3.57
2022-12-29T13:21:57.392Z,3.70
2022-12-29T13:22:53.883Z,4.09
2022-12-29T13:23:56.994Z,3.60
2022-12-29T13:25:00.005Z,3.75
2022-12-29T13:26:03.127Z,3.62
2022-12-29T13:27:06.139Z,3.86
2022-12-29T13:28:09.394Z,3.95
2022-12-29T13:29:12.374Z,4.22
2022-12-29T13:30:15.669Z,3.89
2022-12-29T13:31:18.772Z,4.32
2022-12-29T13:32:21.721Z,4.07
2022-12-29T13:33:25.080Z,4.74
2022-12-29T13:34:28.240Z,4.28
2022-12-29T13:35:31.320Z,4.22
2022-12-29T13:36:34.268Z,3.98
2022-12-29T13:37:37.110Z,4.24
2022-12-29T13:38:40.210Z,4.16
2022-12-29T13:39:43.235Z,4.17
2022-12-29T13:40:45.936Z,3.94
2022-12-29T13:41:48.687Z,4.22
2022-12-29T13:42:51.404Z,4.11
2022-12-29T13:43:54.242Z,4.35
2022-12-29T13:44:57.323Z,4.23
2022-12-29T13:46:00.368Z,4.33
2022-12-29T13:47:03.178Z,4.38
2022-12-29T13:48:06.162Z,4.83
2022-12-29T13:49:09.336Z,4.52
2022-12-29T13:50:12.132Z,4.25
2022-12-29T13:51:15.308Z,4.25
2022-12-29T13:52:17.958Z,4.72
2022-12-29T13:53:20.955Z,4.25